Terminal Aerodrome Forecast
Issued by NWS Wakefield, VA

Home | Current Version | Previous Version | Text Only | Print | Product List | Glossary On
Versions: 1 2 3 4 5 6 7 8 9 10 11 12 13
000
FTUS41 KAKQ 282300
TAFSBY
TAF
KSBY 282320Z 2900/2924 29003KT P6SM -RA OVC070
     FM290400 36006KT 5SM -RA BR SCT015 OVC035
     FM291000 02006KT 3SM -RA BR OVC020
     FM291400 04007KT 3SM -RA BR BKN007 OVC025=

USA.gov is the U.S. government's official web portal to all federal, state and local government web resources and services.